Time;durP1;ratioP1;P1;durP2;ratioP2;P2;SDS_P1;SDS_P2;PMS_P1;PMS_P2;Temp;Humidity;BMP_temperature;BMP_pressure;BME280_temperature;BME280_humidity;BME280_pressure;Samples;Min_cycle;Max_cycle;Signal;HPM_P1;HPM_P2
2023/01/16 05:40:11;;;;;;;9.73;4.60;;;2.50;1.00;;;;;;6140124;23;20259;-96
2023/01/16 05:42:38;;;;;;;7.93;3.23;;;2.50;1.00;;;;;;6208356;23;20207;-96
2023/01/16 05:45:06;;;;;;;7.43;3.33;;;2.50;1.00;;;;;;6220508;23;20240;-96
2023/01/16 05:47:33;;;;;;;4.30;3.10;;;2.50;1.00;;;;;;6219724;23;20161;-96
2023/01/16 05:50:00;;;;;;;6.83;3.87;;;2.60;1.00;;;;;;6218781;23;20542;-95
2023/01/16 05:52:28;;;;;;;4.60;2.80;;;2.70;1.00;;;;;;6218667;23;20165;-96
2023/01/16 05:54:55;;;;;;;2.77;1.93;;;2.80;1.00;;;;;;6222249;23;20264;-96
2023/01/16 05:57:24;;;;;;;3.10;2.00;;;2.90;1.00;;;;;;6229888;23;20165;-96
2023/01/16 05:59:52;;;;;;;6.60;2.30;;;2.90;1.00;;;;;;6231801;23;20240;-96
2023/01/16 06:02:22;;;;;;;7.57;3.00;;;3.00;1.00;;;;;;6220335;23;20172;-96
2023/01/16 06:04:49;;;;;;;4.63;3.60;;;3.10;1.00;;;;;;6222802;23;20165;-96
2023/01/16 06:07:16;;;;;;;7.50;2.93;;;3.10;1.00;;;;;;6222003;23;20199;-96
2023/01/16 06:09:44;;;;;;;6.60;2.87;;;3.10;1.00;;;;;;6224314;23;20165;-96
2023/01/16 06:12:15;;;;;;;4.60;2.67;;;3.10;1.00;;;;;;6226344;23;20199;-96
2023/01/16 06:14:44;;;;;;;7.00;2.20;;;3.20;1.00;;;;;;6218691;23;20165;-96
2023/01/16 06:17:14;;;;;;;6.43;2.07;;;3.20;1.00;;;;;;6219061;23;20172;-96
2023/01/16 06:19:41;;;;;;;3.77;2.20;;;3.30;1.00;;;;;;6220404;23;20169;-96
2023/01/16 06:22:08;;;;;;;7.93;2.50;;;3.30;1.00;;;;;;6219861;23;20227;-95
2023/01/16 06:24:35;;;;;;;3.43;2.20;;;3.30;1.00;;;;;;6218529;23;20177;-95
2023/01/16 06:27:02;;;;;;;3.47;2.13;;;3.30;1.00;;;;;;6218745;23;20173;-96
2023/01/16 06:29:28;;;;;;;4.70;2.33;;;3.30;1.00;;;;;;6219020;23;20551;-95
2023/01/16 06:31:57;;;;;;;4.50;2.60;;;3.30;1.00;;;;;;6218664;23;20655;-96
2023/01/16 06:34:24;;;;;;;4.63;2.23;;;3.30;1.00;;;;;;6218980;23;20173;-96
2023/01/16 06:36:51;;;;;;;5.60;3.03;;;3.30;1.00;;;;;;6218772;23;20501;-95
2023/01/16 06:39:18;;;;;;;6.40;3.43;;;3.30;1.00;;;;;;6218281;23;20219;-96
2023/01/16 06:41:45;;;;;;;6.57;2.83;;;3.30;1.00;;;;;;6218179;23;20243;-95
2023/01/16 06:44:11;;;;;;;5.47;2.90;;;3.30;1.00;;;;;;6218821;23;20157;-95
2023/01/16 06:46:38;;;;;;;7.67;3.57;;;3.30;1.00;;;;;;6218680;23;20172;-96
2023/01/16 06:49:07;;;;;;;4.60;2.60;;;3.30;1.00;;;;;;6218481;23;20173;-95
2023/01/16 06:51:34;;;;;;;3.53;2.20;;;3.30;1.00;;;;;;6218146;23;20193;-96
2023/01/16 06:54:02;;;;;;;4.77;2.00;;;3.30;1.00;;;;;;6218510;23;20227;-95
2023/01/16 06:56:29;;;;;;;6.60;3.47;;;3.40;1.00;;;;;;6218004;23;20169;-96
2023/01/16 06:58:56;;;;;;;5.40;2.40;;;3.40;1.00;;;;;;6218602;23;20173;-96
2023/01/16 07:01:23;;;;;;;7.13;2.90;;;3.40;1.00;;;;;;6218095;23;20177;-95
2023/01/16 07:03:50;;;;;;;6.00;3.00;;;3.30;1.00;;;;;;6217859;23;20168;-96
2023/01/16 07:06:19;;;;;;;5.83;3.00;;;3.20;1.00;;;;;;6218334;23;20173;-95
2023/01/16 07:08:47;;;;;;;7.53;2.80;;;3.10;1.00;;;;;;6217887;23;20230;-95
2023/01/16 07:11:15;;;;;;;6.27;2.77;;;3.00;1.00;;;;;;6218288;23;20188;-96
2023/01/16 07:13:42;;;;;;;7.70;3.03;;;2.90;1.00;;;;;;6217913;23;20172;-95
2023/01/16 07:24:40;;;;;;;7.57;2.47;;;2.60;1.00;;;;;;6126990;23;20171;-95
2023/01/16 07:27:09;;;;;;;4.33;2.70;;;2.60;1.00;;;;;;6126524;23;20700;-96
2023/01/16 07:29:37;;;;;;;6.30;3.03;;;2.60;1.00;;;;;;6126722;23;20253;-96
2023/01/16 07:32:05;;;;;;;7.30;3.70;;;2.60;1.00;;;;;;6126445;23;20194;-96
2023/01/16 07:34:32;;;;;;;5.73;3.47;;;2.50;1.00;;;;;;6126729;23;20171;-96
2023/01/16 07:37:00;;;;;;;15.70;8.67;;;2.50;1.00;;;;;;6126444;23;20175;-96
2023/01/16 07:39:27;;;;;;;17.13;9.40;;;2.50;1.00;;;;;;6126166;23;20613;-96
2023/01/16 07:41:54;;;;;;;15.40;9.00;;;2.50;1.00;;;;;;6126207;23;20220;-96
2023/01/16 07:44:21;;;;;;;15.03;8.10;;;2.60;1.00;;;;;;6126042;23;20178;-96
2023/01/16 07:46:48;;;;;;;12.97;6.87;;;2.60;1.00;;;;;;6125637;23;20222;-96
2023/01/16 07:49:15;;;;;;;12.00;6.70;;;2.60;1.00;;;;;;6126087;23;20202;-95
2023/01/16 07:51:42;;;;;;;9.33;5.40;;;2.70;1.00;;;;;;6125900;23;20523;-95
2023/01/16 07:54:11;;;;;;;20.97;11.97;;;2.70;1.00;;;;;;6125775;23;20490;-95
2023/01/16 07:56:38;;;;;;;11.73;7.40;;;2.80;1.00;;;;;;6125977;23;20166;-95
2023/01/16 07:59:05;;;;;;;16.53;9.10;;;2.80;1.00;;;;;;6180856;23;20176;-96
2023/01/16 08:01:32;;;;;;;15.63;9.67;;;2.90;1.00;;;;;;6216977;23;20222;-96
2023/01/16 08:03:59;;;;;;;16.10;9.83;;;2.90;1.00;;;;;;6217338;23;20198;-96
2023/01/16 08:06:26;;;;;;;32.43;18.23;;;3.00;1.00;;;;;;6217604;23;20545;-96
2023/01/16 08:08:53;;;;;;;27.37;15.50;;;3.00;1.00;;;;;;6217946;23;20199;-96
2023/01/16 08:11:37;;;;;;;21.77;13.27;;;3.00;1.00;;;;;;6217334;23;20572;-96
2023/01/16 08:14:04;;;;;;;12.47;9.03;;;3.10;1.00;;;;;;6217765;23;20167;-95
2023/01/16 08:16:32;;;;;;;10.97;7.87;;;3.20;1.00;;;;;;6220078;23;20173;-96
2023/01/16 08:18:59;;;;;;;17.53;11.37;;;3.20;1.00;;;;;;6221459;23;20173;-96
2023/01/16 08:21:26;;;;;;;9.10;7.20;;;3.20;1.00;;;;;;6227276;23;20168;-96
2023/01/16 08:23:53;;;;;;;13.77;6.63;;;3.30;1.00;;;;;;6229831;23;20251;-96
2023/01/16 08:26:21;;;;;;;9.77;5.70;;;3.30;1.00;;;;;;6230926;23;20195;-96
2023/01/16 08:28:48;;;;;;;12.87;7.00;;;3.30;1.00;;;;;;6232794;23;20200;-96
2023/01/16 08:31:17;;;;;;;11.20;7.20;;;3.40;1.00;;;;;;6230219;23;20192;-96
2023/01/16 08:33:46;;;;;;;13.13;7.90;;;3.40;1.00;;;;;;6226680;23;20179;-96
2023/01/16 08:36:15;;;;;;;19.00;12.53;;;3.50;1.00;;;;;;6230259;23;20173;-96
2023/01/16 08:38:42;;;;;;;25.23;17.43;;;3.50;1.00;;;;;;6229305;23;20650;-96
2023/01/16 08:51:21;;;;;;;19.47;12.47;;;3.50;1.00;;;;;;6228304;23;20168;-96
2023/01/16 08:52:12;;;;;;;16.47;9.80;;;3.80;1.00;;;;;;6218361;23;20183;-95
2023/01/16 08:54:39;;;;;;;14.07;9.37;;;3.80;1.00;;;;;;6217580;23;20172;-95
2023/01/16 08:57:06;;;;;;;13.13;8.17;;;3.80;1.00;;;;;;6218062;23;20248;-96
2023/01/16 08:59:35;;;;;;;12.03;7.00;;;3.90;1.00;;;;;;6218091;23;20172;-96
2023/01/16 09:02:03;;;;;;;9.07;5.57;;;4.00;99.90;;;;;;6217153;23;20745;-96
2023/01/16 09:04:30;;;;;;;10.50;6.20;;;4.00;99.90;;;;;;6217570;23;20173;-95
2023/01/16 09:06:57;;;;;;;21.80;13.97;;;4.00;99.90;;;;;;6219989;23;20169;-96
2023/01/16 09:09:25;;;;;;;33.23;20.17;;;4.10;99.90;;;;;;6219724;23;20172;-96
2023/01/16 09:14:41;;;;;;;40.20;23.27;;;4.20;99.90;;;;;;6219247;23;20206;-96
2023/01/16 09:17:09;;;;;;;69.37;32.07;;;4.30;99.90;;;;;;6219057;23;20195;-96
2023/01/16 09:19:36;;;;;;;39.07;21.43;;;4.40;99.90;;;;;;6219139;23;20716;-96
2023/01/16 09:22:05;;;;;;;62.20;25.07;;;4.40;99.90;;;;;;6219474;23;20226;-96
2023/01/16 09:24:32;;;;;;;66.40;26.73;;;4.40;99.90;;;;;;6218944;23;20170;-96
2023/01/16 09:26:59;;;;;;;19.67;8.13;;;4.50;99.90;;;;;;6219665;23;20223;-95
2023/01/16 09:29:27;;;;;;;39.07;14.73;;;4.60;99.90;;;;;;6219337;23;20173;-96
2023/01/16 09:31:55;;;;;;;20.40;9.30;;;4.60;99.90;;;;;;6218920;23;20196;-96
2023/01/16 09:34:22;;;;;;;23.03;10.50;;;4.70;99.90;;;;;;6218918;23;20165;-96
2023/01/16 09:36:49;;;;;;;27.27;10.50;;;4.80;99.90;;;;;;6218773;23;20547;-96
2023/01/16 09:39:16;;;;;;;31.17;11.53;;;4.90;99.90;;;;;;6219077;23;20205;-96
2023/01/16 09:44:41;;;;;;;20.03;7.10;;;4.80;99.90;;;;;;6218435;23;20155;-96
2023/01/16 09:47:10;;;;;;;17.80;7.03;;;4.90;99.90;;;;;;6218486;23;20172;-96
2023/01/16 09:49:47;;;;;;;17.77;7.07;;;4.90;99.90;;;;;;6218602;23;20699;-96
2023/01/16 10:00:46;;;;;;;16.90;7.03;;;4.70;99.90;;;;;;6218831;23;20161;-96
2023/01/16 10:03:15;;;;;;;18.30;7.30;;;4.60;99.90;;;;;;6218954;23;20168;-95
2023/01/16 10:05:50;;;;;;;18.00;7.53;;;4.50;99.90;;;;;;6218545;23;20199;-96
2023/01/16 10:08:24;;;;;;;24.00;10.50;;;4.50;99.90;;;;;;6219117;23;20583;-96
2023/01/16 10:10:59;;;;;;;22.17;11.70;;;4.50;99.90;;;;;;6219053;23;20207;-96
2023/01/16 10:13:59;;;;;;;29.87;14.77;;;4.50;99.90;;;;;;6218863;23;20560;-96
2023/01/16 10:16:36;;;;;;;22.90;10.60;;;4.50;99.90;;;;;;6210482;23;20177;-96
2023/01/16 10:19:13;;;;;;;12.60;7.13;;;4.50;99.90;;;;;;6218732;23;20161;-96
2023/01/16 10:21:55;;;;;;;17.40;7.73;;;4.60;99.90;;;;;;6218504;23;20665;-95
2023/01/16 10:24:32;;;;;;;14.53;5.80;;;4.70;99.90;;;;;;6218579;23;20181;-96
2023/01/16 10:27:01;;;;;;;11.97;5.97;;;4.70;99.90;;;;;;6218480;23;20162;-96
2023/01/16 10:29:35;;;;;;;16.43;7.93;;;4.80;99.90;;;;;;6218634;23;20229;-96
2023/01/16 10:32:07;;;;;;;21.60;9.10;;;5.00;99.90;;;;;;6218574;23;20232;-96
2023/01/16 10:34:41;;;;;;;18.73;7.83;;;5.10;99.90;;;;;;6218919;23;20480;-95
2023/01/16 10:37:09;;;;;;;20.90;8.17;;;5.30;99.90;;;;;;6219105;23;20219;-94
2023/01/16 10:39:38;;;;;;;29.57;10.40;;;5.50;99.90;;;;;;6218489;23;20178;-95
2023/01/16 10:50:40;;;;;;;23.17;13.47;;;5.60;1.00;;;;;;6218098;23;20498;-96
2023/01/16 10:53:09;;;;;;;31.30;15.47;;;5.50;1.00;;;;;;6218116;23;20251;-95
2023/01/16 10:55:39;;;;;;;27.17;11.17;;;5.50;1.00;;;;;;6218396;23;20243;-96
2023/01/16 10:58:12;;;;;;;30.93;12.63;;;5.50;1.00;;;;;;6218885;23;20176;-96
2023/01/16 11:00:42;;;;;;;16.73;7.27;;;5.40;1.00;;;;;;6217970;23;20158;-96
2023/01/16 11:03:15;;;;;;;20.73;9.27;;;5.40;1.00;;;;;;6217660;23;20165;-96
2023/01/16 11:05:43;;;;;;;29.50;14.60;;;5.40;1.00;;;;;;6218184;23;20155;-95
2023/01/16 11:08:13;;;;;;;22.03;9.70;;;5.50;1.00;;;;;;6217698;23;20620;-95
2023/01/16 11:10:42;;;;;;;22.63;11.03;;;5.50;1.00;;;;;;6217913;23;20171;-96
2023/01/16 11:18:48;;;;;;;18.83;8.40;;;5.50;1.00;;;;;;6216249;23;20842;-96
2023/01/16 11:21:24;;;;;;;40.33;14.33;;;5.60;1.00;;;;;;6217692;23;20169;-96
2023/01/16 11:23:58;;;;;;;23.73;12.87;;;5.50;1.00;;;;;;6217654;23;20179;-96
2023/01/16 11:26:26;;;;;;;28.73;13.60;;;5.60;1.00;;;;;;6217727;23;20154;-96
2023/01/16 11:28:56;;;;;;;17.77;8.37;;;5.60;1.00;;;;;;6216829;23;20638;-96
2023/01/16 11:31:26;;;;;;;18.70;7.83;;;5.70;1.00;;;;;;6218415;23;20176;-96
2023/01/16 11:34:01;;;;;;;18.37;8.20;;;5.70;1.00;;;;;;6218089;23;20189;-95
2023/01/16 11:36:33;;;;;;;30.23;13.13;;;5.70;1.00;;;;;;6217586;23;20617;-96
2023/01/16 11:39:01;;;;;;;20.00;8.40;;;5.70;1.00;;;;;;6218177;23;20152;-96
2023/01/16 11:41:32;;;;;;;16.77;7.20;;;5.70;1.00;;;;;;6217048;23;20640;-95
2023/01/16 11:46:59;;;;;;;20.83;7.93;;;5.60;1.00;;;;;;6217805;23;20200;-95
2023/01/16 11:49:29;;;;;;;11.27;5.53;;;5.70;1.00;;;;;;6217801;23;20208;-96
2023/01/16 11:52:03;;;;;;;10.97;4.10;;;5.80;1.00;;;;;;6217698;23;20223;-96
2023/01/16 11:54:32;;;;;;;10.70;3.97;;;5.90;1.00;;;;;;6217756;23;20187;-96
2023/01/16 11:57:15;;;;;;;7.93;4.20;;;6.00;1.00;;;;;;6217663;23;20172;-96
2023/01/16 12:00:09;;;;;;;7.13;4.00;;;6.10;1.00;;;;;;6217828;23;20157;-96
2023/01/16 12:02:53;;;;;;;10.00;5.27;;;6.10;1.00;;;;;;6218111;23;20158;-96
2023/01/16 12:08:32;;;;;;;11.20;5.23;;;6.30;1.00;;;;;;6217302;23;20195;-96
2023/01/16 12:11:05;;;;;;;9.23;5.17;;;6.40;1.00;;;;;;6217774;23;20214;-96
2023/01/16 12:16:39;;;;;;;3.87;2.23;;;6.40;1.00;;;;;;6096958;23;20168;-96
2023/01/16 12:19:24;;;;;;;16.37;8.33;;;6.50;1.00;;;;;;6096774;23;20232;-95
2023/01/16 12:21:58;;;;;;;8.23;3.87;;;6.40;1.00;;;;;;6096734;23;20305;-96
2023/01/16 12:24:37;;;;;;;8.53;4.80;;;6.30;1.00;;;;;;6096661;23;20161;-95
2023/01/16 12:27:16;;;;;;;10.70;4.90;;;6.30;1.00;;;;;;6096853;23;20175;-96
2023/01/16 12:29:56;;;;;;;14.87;6.83;;;6.20;1.00;;;;;;6096690;23;20160;-96
2023/01/16 12:32:44;;;;;;;10.77;4.00;;;6.30;1.00;;;;;;6096636;23;20180;-95
2023/01/16 12:35:39;;;;;;;5.83;2.70;;;6.30;1.00;;;;;;6096844;23;20175;-96
2023/01/16 12:38:15;;;;;;;8.70;4.57;;;6.20;1.00;;;;;;6096880;23;20231;-96
2023/01/16 12:43:51;;;;;;;6.13;3.53;;;6.30;1.00;;;;;;6096480;23;20168;-96
2023/01/16 12:46:24;;;;;;;11.10;3.97;;;6.30;1.00;;;;;;6096929;23;20175;-96
2023/01/16 12:49:02;;;;;;;6.87;3.77;;;6.30;1.00;;;;;;6096613;23;20215;-96
2023/01/16 12:51:46;;;;;;;6.20;3.27;;;6.30;1.00;;;;;;6096366;23;20159;-96
2023/01/16 12:54:36;;;;;;;6.30;3.30;;;6.30;1.00;;;;;;6195594;23;20193;-96
2023/01/16 12:57:31;;;;;;;5.97;3.47;;;6.30;1.00;;;;;;6217620;23;20156;-96
2023/01/16 13:00:03;;;;;;;9.83;4.87;;;6.30;1.00;;;;;;6212407;23;20204;-96
2023/01/16 13:02:37;;;;;;;8.17;5.13;;;6.30;1.00;;;;;;6217541;23;20202;-96
2023/01/16 13:05:08;;;;;;;9.63;3.50;;;6.30;1.00;;;;;;6217699;23;20208;-96
2023/01/16 13:07:41;;;;;;;7.10;3.70;;;6.30;1.00;;;;;;6217772;23;20169;-95
2023/01/16 13:13:24;;;;;;;4.30;2.50;;;6.20;1.00;;;;;;6217182;23;20181;-96
2023/01/16 13:16:00;;;;;;;9.07;6.37;;;6.20;1.00;;;;;;6217503;23;20483;-96
2023/01/16 13:18:29;;;;;;;7.50;5.07;;;6.10;1.00;;;;;;6217558;23;20192;-96
2023/01/16 13:20:59;;;;;;;6.73;4.00;;;6.10;1.00;;;;;;6216828;23;20173;-96
2023/01/16 13:23:31;;;;;;;14.73;6.73;;;6.10;1.00;;;;;;6216957;23;20169;-96
2023/01/16 13:26:02;;;;;;;11.23;5.20;;;6.10;1.00;;;;;;6217042;23;20196;-96
2023/01/16 13:28:42;;;;;;;21.37;13.23;;;6.10;1.00;;;;;;6217539;23;20162;-96
2023/01/16 13:31:18;;;;;;;9.33;3.70;;;6.00;1.00;;;;;;6217694;23;20160;-96
2023/01/16 13:33:50;;;;;;;18.60;12.60;;;6.00;1.00;;;;;;6216769;23;20204;-95
2023/01/16 13:36:37;;;;;;;12.97;6.53;;;6.00;1.00;;;;;;6217106;23;20165;-96
2023/01/16 13:39:45;;;;;;;10.03;5.23;;;5.90;1.00;;;;;;6217539;23;20157;-96
2023/01/16 13:42:15;;;;;;;11.50;7.20;;;5.90;1.00;;;;;;6216811;23;20193;-96
2023/01/16 13:47:38;;;;;;;9.30;4.47;;;5.80;1.00;;;;;;6216956;23;20164;-96
2023/01/16 13:50:16;;;;;;;5.53;3.30;;;5.80;1.00;;;;;;6216685;23;20191;-95
2023/01/16 13:52:44;;;;;;;11.00;5.73;;;5.70;1.00;;;;;;6218140;23;20173;-96
2023/01/16 13:55:28;;;;;;;17.10;11.00;;;5.70;1.00;;;;;;6218230;23;20847;-96
2023/01/16 13:57:57;;;;;;;6.93;4.03;;;5.60;1.00;;;;;;6218735;23;20163;-96
2023/01/16 14:00:28;;;;;;;7.83;4.43;;;5.60;1.00;;;;;;6218973;23;20176;-96
2023/01/16 14:03:17;;;;;;;6.73;3.97;;;5.50;1.00;;;;;;6218834;23;20155;-96
2023/01/16 14:05:47;;;;;;;7.77;4.03;;;5.40;1.00;;;;;;6218813;23;20157;-96
2023/01/16 14:11:26;;;;;;;8.63;4.77;;;5.30;1.00;;;;;;6218833;23;20491;-96
2023/01/16 14:16:30;;;;;;;7.47;4.53;;;5.20;1.00;;;;;;6218608;23;20499;-96
2023/01/16 14:17:10;;;;;;;5.57;4.00;;;5.20;1.00;;;;;;6218220;23;20643;-96
2023/01/16 14:19:41;;;;;;;9.07;5.00;;;5.10;1.00;;;;;;6218602;23;20228;-96
2023/01/16 14:25:06;;;;;;;7.30;3.27;;;5.10;1.00;;;;;;6218971;23;20200;-96
2023/01/16 14:27:38;;;;;;;7.13;2.90;;;5.10;1.00;;;;;;6218654;23;20232;-96
2023/01/16 14:30:06;;;;;;;6.40;2.80;;;5.00;1.00;;;;;;6218656;23;20160;-96
2023/01/16 14:32:37;;;;;;;6.80;2.70;;;5.00;1.00;;;;;;6218256;23;20184;-96
2023/01/16 14:35:13;;;;;;;8.17;2.97;;;4.90;1.00;;;;;;6218778;23;20154;-95
2023/01/16 14:37:42;;;;;;;4.80;2.53;;;4.90;1.00;;;;;;6219128;23;20654;-96
2023/01/16 14:40:21;;;;;;;6.47;2.73;;;4.80;1.00;;;;;;6218466;23;20171;-96
2023/01/16 14:57:10;;;;;;;6.83;2.70;;;4.60;1.00;;;;;;6218093;23;20154;-95
2023/01/16 14:59:41;;;;;;;8.03;3.93;;;4.50;1.00;;;;;;6218348;23;20160;-96
2023/01/16 15:02:23;;;;;;;5.50;3.30;;;4.50;1.00;;;;;;6218058;23;20195;-96
2023/01/16 15:04:56;;;;;;;6.40;2.57;;;4.40;1.00;;;;;;6217627;23;20621;-96
2023/01/16 15:07:32;;;;;;;5.17;2.33;;;4.30;1.00;;;;;;6217800;23;20161;-95
2023/01/16 15:10:03;;;;;;;6.43;2.77;;;4.20;1.00;;;;;;6217574;23;20172;-96
2023/01/16 15:12:38;;;;;;;4.43;2.53;;;4.20;1.00;;;;;;6217742;23;20168;-96
2023/01/16 15:15:19;;;;;;;6.90;2.87;;;4.10;1.00;;;;;;6217575;23;20156;-96
2023/01/16 15:23:22;;;;;;;9.60;3.30;;;3.90;1.00;;;;;;6217994;23;20148;-96
2023/01/16 15:25:59;;;;;;;9.77;3.80;;;3.90;1.00;;;;;;6217698;23;20168;-96
2023/01/16 15:28:34;;;;;;;7.97;4.57;;;3.80;1.00;;;;;;6218092;23;20201;-96
2023/01/16 15:31:10;;;;;;;9.33;5.20;;;3.80;1.00;;;;;;6217480;23;20689;-96
2023/01/16 15:33:46;;;;;;;8.83;5.00;;;3.80;23.40;;;;;;6217820;23;20188;-96
2023/01/16 15:36:22;;;;;;;9.37;5.30;;;3.90;9.20;;;;;;6217682;23;20191;-96
2023/01/16 15:38:53;;;;;;;8.87;4.60;;;3.90;1.00;;;;;;6218561;23;20606;-96
2023/01/16 15:46:32;;;;;;;8.43;3.77;;;3.90;1.00;;;;;;6217684;23;20164;-96
2023/01/16 15:48:01;;;;;;;7.90;4.53;;;3.90;1.00;;;;;;6097423;23;20159;-95
2023/01/16 15:50:50;;;;;;;8.40;4.43;;;3.90;1.00;;;;;;6096723;23;20254;-94
2023/01/16 15:53:19;;;;;;;10.20;4.53;;;3.90;1.00;;;;;;6096581;23;20191;-94
2023/01/16 15:55:50;;;;;;;9.07;4.80;;;3.90;1.00;;;;;;6096989;23;20167;-96
2023/01/16 15:58:19;;;;;;;10.33;5.27;;;3.90;1.00;;;;;;6096996;23;20172;-96
2023/01/16 16:00:55;;;;;;;8.30;5.07;;;3.90;1.00;;;;;;6096177;23;20700;-95
2023/01/16 16:03:25;;;;;;;11.47;5.20;;;3.90;1.00;;;;;;6096286;23;20657;-95
2023/01/16 16:05:56;;;;;;;11.23;5.57;;;3.90;1.00;;;;;;6096279;23;20173;-95
2023/01/16 16:08:26;;;;;;;11.73;5.50;;;3.90;1.00;;;;;;6096635;23;20227;-96
2023/01/16 16:13:40;;;;;;;10.27;5.43;;;3.90;1.00;;;;;;6095858;23;20299;-95
2023/01/16 16:19:02;;;;;;;9.60;5.83;;;3.90;1.00;;;;;;6198061;23;20168;-95
2023/01/16 16:21:33;;;;;;;10.60;6.00;;;3.90;1.00;;;;;;6216787;23;20234;-95
2023/01/16 16:24:04;;;;;;;11.13;5.73;;;3.90;1.00;;;;;;6217194;23;20152;-94
2023/01/16 16:26:34;;;;;;;12.70;6.53;;;3.80;1.00;;;;;;6216725;23;20207;-95
2023/01/16 16:29:02;;;;;;;9.90;6.07;;;3.80;1.00;;;;;;6216652;23;20149;-95
2023/01/16 16:31:32;;;;;;;9.20;6.20;;;3.80;1.00;;;;;;6216764;23;20227;-95
2023/01/16 16:34:03;;;;;;;11.00;6.20;;;3.80;1.00;;;;;;6217036;23;20220;-96
2023/01/16 16:36:35;;;;;;;9.33;5.77;;;3.80;1.00;;;;;;6217189;23;20208;-95
2023/01/16 16:39:03;;;;;;;11.50;6.63;;;3.80;1.00;;;;;;6217177;23;20157;-95
2023/01/16 16:44:38;;;;;;;12.23;6.30;;;3.80;1.00;;;;;;6216573;23;20492;-95
2023/01/16 16:47:22;;;;;;;11.57;6.60;;;3.80;1.00;;;;;;6216911;23;20157;-95
2023/01/16 16:49:49;;;;;;;14.00;7.23;;;3.80;1.00;;;;;;6191916;23;20509;-95
2023/01/16 16:52:28;;;;;;;10.90;6.37;;;3.80;1.00;;;;;;6217361;23;20199;-96
2023/01/16 16:54:58;;;;;;;15.40;6.90;;;3.70;1.00;;;;;;6216869;23;20243;-96
2023/01/16 16:57:27;;;;;;;12.47;6.43;;;3.80;1.00;;;;;;6216656;23;20169;-96
2023/01/16 16:59:55;;;;;;;11.33;6.97;;;3.70;1.00;;;;;;6216565;23;20230;-96
2023/01/16 17:02:23;;;;;;;13.30;7.60;;;3.70;1.00;;;;;;6216167;23;20631;-95
2023/01/16 17:04:50;;;;;;;15.00;7.37;;;3.70;1.00;;;;;;6216426;23;20168;-96
2023/01/16 17:07:18;;;;;;;12.43;6.27;;;3.70;1.00;;;;;;6216861;23;20172;-96
2023/01/16 17:09:45;;;;;;;13.03;7.07;;;3.70;1.00;;;;;;6217186;23;20169;-96
2023/01/16 17:12:16;;;;;;;14.53;7.07;;;3.70;1.00;;;;;;6220220;23;20169;-96
2023/01/16 17:14:45;;;;;;;13.53;7.07;;;3.70;1.00;;;;;;6221989;23;20200;-96
2023/01/16 17:17:18;;;;;;;11.17;6.83;;;3.70;1.00;;;;;;6223725;23;20173;-96
2023/01/16 17:19:46;;;;;;;16.33;7.47;;;3.70;1.00;;;;;;6223779;23;20160;-96
2023/01/16 17:22:14;;;;;;;14.47;7.50;;;3.70;1.00;;;;;;6224433;23;20172;-96
2023/01/16 17:24:41;;;;;;;13.03;7.30;;;3.70;1.00;;;;;;6223204;23;20172;-96
2023/01/16 17:27:10;;;;;;;16.47;7.13;;;3.70;1.00;;;;;;6228040;23;20255;-96
2023/01/16 17:29:42;;;;;;;12.07;6.80;;;3.70;1.00;;;;;;6229499;23;20168;-96
2023/01/16 17:32:25;;;;;;;10.63;6.60;;;3.70;1.00;;;;;;6228815;23;20183;-96
2023/01/16 17:34:52;;;;;;;12.60;5.97;;;3.60;1.00;;;;;;6230802;23;20550;-96
2023/01/16 17:37:20;;;;;;;13.40;7.30;;;3.70;1.00;;;;;;6235009;23;20168;-96
2023/01/16 17:39:48;;;;;;;12.87;6.83;;;3.60;1.00;;;;;;6236083;23;20175;-96
2023/01/16 17:47:45;;;;;;;13.20;6.50;;;3.50;1.00;;;;;;6231864;23;20156;-96
2023/01/16 17:50:21;;;;;;;12.20;7.07;;;3.60;1.00;;;;;;6236331;23;20200;-96
2023/01/16 17:52:52;;;;;;;12.37;6.83;;;3.60;1.00;;;;;;6231440;23;20184;-96
2023/01/16 17:58:05;;;;;;;15.47;8.37;;;3.60;1.00;;;;;;6230755;23;20156;-96
2023/01/16 18:00:34;;;;;;;14.53;8.07;;;3.60;1.00;;;;;;6229225;23;20222;-96
2023/01/16 18:03:04;;;;;;;13.27;7.40;;;3.60;1.00;;;;;;6224621;23;20199;-96
2023/01/16 18:05:31;;;;;;;17.30;8.20;;;3.60;1.00;;;;;;6228353;23;20162;-96
2023/01/16 18:07:58;;;;;;;13.47;6.90;;;3.60;1.00;;;;;;6224194;23;20172;-96
2023/01/16 18:10:25;;;;;;;13.07;6.50;;;3.60;1.00;;;;;;6219675;23;20169;-96
2023/01/16 18:18:25;;;;;;;13.30;7.17;;;3.50;1.00;;;;;;6096446;23;20183;-95
2023/01/16 18:21:59;;;;;;;13.07;7.50;;;3.50;1.00;;;;;;6096904;23;20175;-96
2023/01/16 18:23:38;;;;;;;10.43;6.13;;;3.40;1.00;;;;;;6097381;23;20283;-96
2023/01/16 18:26:05;;;;;;;17.07;7.23;;;3.40;1.00;;;;;;6098981;23;20171;-96
2023/01/16 18:28:32;;;;;;;14.77;7.37;;;3.40;1.00;;;;;;6098662;23;20172;-96
2023/01/16 18:31:06;;;;;;;13.10;6.80;;;3.40;1.00;;;;;;6103422;23;20516;-94
2023/01/16 18:33:33;;;;;;;17.63;7.17;;;3.30;1.00;;;;;;6097654;23;20175;-96
2023/01/16 18:36:04;;;;;;;12.43;7.17;;;3.30;1.00;;;;;;6100993;23;20210;-96
2023/01/16 19:03:19;;;;;;;15.07;6.80;;;3.00;1.00;;;;;;6203383;23;20196;-96
2023/01/16 19:05:46;;;;;;;16.00;7.43;;;2.90;1.00;;;;;;6205956;23;20529;-96
2023/01/16 19:08:21;;;;;;;14.97;7.67;;;3.00;1.00;;;;;;6206757;23;20173;-96
2023/01/16 19:10:50;;;;;;;15.20;7.27;;;3.00;1.00;;;;;;6207410;23;20153;-96
2023/01/16 19:13:37;;;;;;;12.73;7.03;;;3.00;1.00;;;;;;6207408;23;20158;-96
2023/01/16 19:18:41;;;;;;;15.70;7.13;;;3.00;1.00;;;;;;6168792;23;20203;-95
2023/01/16 19:26:23;;;;;;;16.43;7.90;;;2.90;1.00;;;;;;6177449;23;20197;-95
2023/01/16 19:31:27;;;;;;;15.30;7.77;;;2.80;1.00;;;;;;6191602;23;20208;-96
2023/01/16 19:33:56;;;;;;;14.17;7.30;;;2.80;1.00;;;;;;6190834;23;20174;-96
2023/01/16 19:36:23;;;;;;;12.57;7.80;;;2.70;1.00;;;;;;6190408;23;20166;-95
2023/01/16 19:38:52;;;;;;;13.33;8.13;;;2.70;1.00;;;;;;6194766;23;20239;-96
2023/01/16 19:54:41;;;;;;;14.60;8.57;;;2.60;63.20;;;;;;6197005;23;20447;-96
2023/01/16 19:57:09;;;;;;;26.57;14.90;;;2.50;98.80;;;;;;6207207;23;20350;-96
2023/01/16 20:04:40;;;;;;;14.50;8.60;;;2.40;99.90;;;;;;6175959;23;20207;-95
2023/01/16 20:07:14;;;;;;;19.87;9.30;;;2.40;99.90;;;;;;6207954;23;20158;-96
2023/01/16 20:09:44;;;;;;;18.17;9.37;;;2.40;99.90;;;;;;6205573;23;20209;-96
2023/01/16 20:12:26;;;;;;;17.50;10.50;;;2.40;99.90;;;;;;6208051;23;20201;-96
2023/01/16 20:14:55;;;;;;;14.83;9.00;;;2.40;99.90;;;;;;6209115;23;20166;-96
2023/01/16 20:17:23;;;;;;;18.70;9.60;;;2.40;99.90;;;;;;6209523;23;20205;-96
2023/01/16 20:19:50;;;;;;;15.37;9.27;;;2.30;99.90;;;;;;6193754;23;20616;-96
2023/01/16 20:22:17;;;;;;;18.73;9.87;;;2.30;99.90;;;;;;6188944;23;20734;-94
2023/01/16 20:24:48;;;;;;;19.90;9.93;;;2.30;99.90;;;;;;6197918;23;20226;-96
2023/01/16 20:27:16;;;;;;;18.43;10.23;;;2.30;99.90;;;;;;6199671;23;20157;-96
2023/01/16 20:29:44;;;;;;;21.87;11.23;;;2.30;99.90;;;;;;6194026;23;20549;-95
2023/01/16 20:32:11;;;;;;;18.57;10.53;;;2.30;99.90;;;;;;6196603;23;20165;-96
2023/01/16 20:34:38;;;;;;;18.10;10.93;;;2.20;99.90;;;;;;6204538;23;20232;-96
2023/01/16 20:37:07;;;;;;;19.30;10.67;;;2.20;99.90;;;;;;6203096;23;20212;-95
2023/01/16 20:39:34;;;;;;;19.83;10.53;;;2.20;99.90;;;;;;6207913;23;20173;-96
2023/01/16 20:47:32;;;;;;;19.87;10.93;;;2.10;99.90;;;;;;6209229;23;20140;-96
2023/01/16 20:50:00;;;;;;;22.90;11.43;;;2.10;99.90;;;;;;6207613;23;20199;-95
2023/01/16 20:52:27;;;;;;;21.90;10.80;;;2.10;99.90;;;;;;6209170;23;20212;-96
2023/01/16 20:54:54;;;;;;;21.10;10.60;;;2.00;99.90;;;;;;6208007;23;20201;-96
2023/01/16 20:57:22;;;;;;;19.83;10.87;;;2.00;99.90;;;;;;6204886;23;20201;-95
2023/01/16 20:59:49;;;;;;;19.57;10.43;;;2.00;99.90;;;;;;6206624;23;20188;-96
2023/01/16 21:02:17;;;;;;;20.80;10.77;;;2.00;99.90;;;;;;6205257;23;20252;-96
2023/01/16 21:04:46;;;;;;;19.57;11.17;;;2.00;99.90;;;;;;6204480;23;20180;-96
2023/01/16 21:07:13;;;;;;;20.63;11.23;;;1.90;99.90;;;;;;6199914;23;20200;-96
2023/01/16 21:09:40;;;;;;;19.90;10.07;;;1.90;99.90;;;;;;6197096;23;20196;-95
2023/01/16 21:14:54;;;;;;;20.70;10.83;;;1.90;1.00;;;;;;6199187;23;20181;-95
2023/01/16 21:22:52;;;;;;;18.43;10.07;;;1.90;1.00;;;;;;6207146;23;20160;-96
2023/01/16 21:25:21;;;;;;;19.87;10.80;;;1.90;1.00;;;;;;6207961;23;20170;-95
2023/01/16 21:27:50;;;;;;;19.83;10.23;;;1.90;1.00;;;;;;6208684;23;20216;-95
2023/01/16 21:30:20;;;;;;;18.87;10.93;;;1.90;1.00;;;;;;6210254;23;20168;-95
2023/01/16 21:32:48;;;;;;;18.07;10.37;;;1.90;1.00;;;;;;6204693;23;20196;-96
2023/01/16 21:35:16;;;;;;;22.50;10.80;;;2.00;1.00;;;;;;6206407;23;20220;-95
2023/01/16 21:37:44;;;;;;;21.70;10.60;;;2.00;1.00;;;;;;6205430;23;20622;-95
2023/01/16 21:40:13;;;;;;;18.93;10.73;;;2.00;1.00;;;;;;6201564;23;20181;-95
2023/01/16 21:48:14;;;;;;;16.63;9.67;;;2.00;1.00;;;;;;6205077;23;20147;-95
2023/01/16 21:50:43;;;;;;;18.53;9.73;;;1.90;1.00;;;;;;6200979;23;20177;-95
2023/01/16 21:53:12;;;;;;;19.07;10.30;;;1.90;1.00;;;;;;6203391;23;20257;-95
2023/01/16 21:55:39;;;;;;;17.73;10.37;;;2.00;1.00;;;;;;6204524;23;20192;-95
2023/01/16 21:58:06;;;;;;;19.83;10.27;;;1.90;1.00;;;;;;6200720;23;20183;-95
2023/01/16 22:00:35;;;;;;;21.73;10.83;;;1.90;1.00;;;;;;6190732;23;20181;-95
2023/01/16 22:03:03;;;;;;;19.20;9.97;;;1.90;1.00;;;;;;6189154;23;20172;-96